Shokyu Maru — JG5288 — position and weather

sailwx.info

Track history (hours):
 
Tides and Currents Weather Stations Pressure Air Temp Water Temp Dewpoint Dewpoint Depression Visibility Wind Speed Wind Dir Waves Ship Positions

Shokyu Maru

Last reported at 2018-Feb-24 15:00 UTC. Time now 2018-Feb-24 15:38 UTC.
Position N 35°29' E 139°39'.

Length 91 m; draft 3.2 m.

Type: Tanker. MMSI: 431000253.

Date/timePositionNaut miles runAvg speedWind from/ knotsBaromVisibWave heightAir tempDewpointWater temp
2018-Feb-24 15:00N 35°29' E 139°39'0 0.0
2018-Feb-24 14:30N 35°29' E 139°39'0 0.0
2018-Feb-24 14:00N 35°29' E 139°39'0 0.0
2018-Feb-24 13:30N 35°29' E 139°39'0 0.0
2018-Feb-24 13:00N 35°29' E 139°39'0 0.0
2018-Feb-24 12:30N 35°29' E 139°39'0 0.0
2018-Feb-24 12:00N 35°29' E 139°39'0 0.0
2018-Feb-24 11:30N 35°29' E 139°39'0 0.0
2018-Feb-24 11:00N 35°29' E 139°39'0 0.0
2018-Feb-24 10:30N 35°29' E 139°39'0 0.0
2018-Feb-24 10:00N 35°29' E 139°39'0 0.0
2018-Feb-24 09:30N 35°29' E 139°39'0 0.0
2018-Feb-24 09:00N 35°29' E 139°39'0 0.0
2018-Feb-24 08:30N 35°29' E 139°39'0 0.0
2018-Feb-24 08:00N 35°29' E 139°39'0 0.0
2018-Feb-24 07:30N 35°29' E 139°39'0 0.0
2018-Feb-24 07:00N 35°29' E 139°39'0 0.0
2018-Feb-24 06:30N 35°29' E 139°39'0 0.0
2018-Feb-24 06:00N 35°29' E 139°39'0 0.0
2018-Feb-24 05:30N 35°29' E 139°39'4 7.3
2018-Feb-24 05:00N 35°26' E 139°43'510.8
2018-Feb-24 04:30N 35°29' E 139°49'510.6
2018-Feb-24 04:00N 35°32' E 139°53'610.7
2018-Feb-24 03:28N 35°37' E 139°57'4 0.9
2018-Feb-23 23:19N 35°41' E 139°56'0 0.0
2018-Feb-23 22:49N 35°41' E 139°56'0 0.6
2018-Feb-23 22:06N 35°40' E 139°57'1 9.6
2018-Feb-23 22:01N 35°40' E 139°57'4 7.1
2018-Feb-23 21:30N 35°36' E 139°56'0 0.7
2018-Feb-23 20:58N 35°36' E 139°55'0 0.0
2018-Feb-23 20:28N 35°36' E 139°55'0 0.0
2018-Feb-23 19:58N 35°36' E 139°55'0 0.0
2018-Feb-23 19:25N 35°36' E 139°55'0 0.1
2018-Feb-23 18:55N 35°36' E 139°55'0 0.1
2018-Feb-23 18:28N 35°36' E 139°55'0 0.0
2018-Feb-23 17:58N 35°36' E 139°55'0 0.0
2018-Feb-23 17:28N 35°36' E 139°55'0 0.0
2018-Feb-23 16:58N 35°36' E 139°55'0 0.1
2018-Feb-23 16:25N 35°36' E 139°55'0 0.0
2018-Feb-23 15:58N 35°36' E 139°55'0 0.1
2018-Feb-23 15:25N 35°36' E 139°55'0 0.1
2018-Feb-23 14:58N 35°36' E 139°55'0 0.0
2018-Feb-23 14:28N 35°36' E 139°55'0 0.1
2018-Feb-23 13:37N 35°36' E 139°55'0 0.1
2018-Feb-23 13:25N 35°36' E 139°55'0 0.0
2018-Feb-23 12:55N 35°36' E 139°55'0 0.0
2018-Feb-23 12:19N 35°36' E 139°55'0 0.0
2018-Feb-23 11:55N 35°36' E 139°55'1 1.2
2018-Feb-23 11:30N 35°36' E 139°56'510.6
2018-Feb-23 11:00N 35°33' E 140°01'2 3.3
2018-Feb-23 10:25N 35°32' E 140°03'0 0.0
2018-Feb-23 09:55N 35°32' E 140°03'0 0.0
2018-Feb-23 09:25N 35°32' E 140°03'0 0.0
2018-Feb-23 08:58N 35°32' E 140°03'0 0.0
2018-Feb-23 08:25N 35°32' E 140°03'0 0.0
2018-Feb-23 07:55N 35°32' E 140°03'0 0.0
2018-Feb-23 07:25N 35°32' E 140°03'0 0.0
2018-Feb-23 06:55N 35°32' E 140°03'0 0.0
2018-Feb-23 06:28N 35°32' E 140°03'0 0.0
2018-Feb-23 05:58N 35°32' E 140°03'0 0.0
2018-Feb-23 05:25N 35°32' E 140°03'0 0.0
2018-Feb-23 04:55N 35°32' E 140°03'1 2.1
2018-Feb-23 04:31N 35°32' E 140°02'0 0.7
2018-Feb-23 04:00N 35°32' E 140°02'3 5.7
2018-Feb-23 03:30N 35°35' E 140°00'510.7
2018-Feb-23 03:00N 35°40' E 139°58'1 0.9
2018-Feb-23 01:33N 35°41' E 139°56'0 0.0
2018-Feb-23 01:09N 35°41' E 139°56'0 0.0
2018-Feb-23 00:57N 35°41' E 139°56'0 0.0
2018-Feb-23 00:27N 35°41' E 139°56'0 0.1
2018-Feb-22 21:34N 35°40' E 139°57'1 7.8
2018-Feb-22 21:30N 35°40' E 139°57'4 4.2
2018-Feb-22 20:38N 35°37' E 139°59'0 0.0
2018-Feb-22 20:26N 35°37' E 139°59'0 0.0
2018-Feb-22 19:56N 35°37' E 139°59'0 0.0
2018-Feb-22 19:26N 35°37' E 139°59'0 0.0
2018-Feb-22 18:56N 35°37' E 139°59'0 0.0
2018-Feb-22 18:26N 35°37' E 139°59'0 0.0
2018-Feb-22 17:56N 35°37' E 139°59'0 0.0
2018-Feb-22 17:26N 35°37' E 139°59'0 0.0
2018-Feb-22 16:56N 35°37' E 139°59'0 0.0
2018-Feb-22 16:20N 35°37' E 139°59'0 0.0
2018-Feb-22 15:56N 35°37' E 139°59'0 0.0
2018-Feb-22 15:26N 35°37' E 139°59'0 0.0
2018-Feb-22 14:56N 35°37' E 139°59'0 0.0
2018-Feb-22 14:26N 35°37' E 139°59'0 0.0
2018-Feb-22 13:56N 35°37' E 139°59'0 0.0
2018-Feb-22 13:26N 35°37' E 139°59'0 0.0
2018-Feb-22 12:56N 35°37' E 139°59'0 0.0
2018-Feb-22 12:26N 35°37' E 139°59'0 0.0
2018-Feb-22 11:56N 35°37' E 139°59'1 2.1
2018-Feb-22 11:30N 35°36' E 139°59'510.2
2018-Feb-22 11:00N 35°31' E 140°02'1 1.5
2018-Feb-22 10:24N 35°31' E 140°03'0 0.0
2018-Feb-22 10:00N 35°31' E 140°03'0 0.0
2018-Feb-22 09:24N 35°31' E 140°03'0 0.0
2018-Feb-22 09:00N 35°31' E 140°03'0 0.0
2018-Feb-22 08:27N 35°31' E 140°03'0 0.0
2018-Feb-22 07:57N 35°31' E 140°03'0 0.0
2018-Feb-22 07:30N 35°31' E 140°03'0 0.0
2018-Feb-22 06:54N 35°31' E 140°03'0 0.0
2018-Feb-22 06:30N 35°31' E 140°03'0 0.0
2018-Feb-22 05:54N 35°31' E 140°03'0 0.0
2018-Feb-22 05:24N 35°31' E 140°03'0 0.0
2018-Feb-22 05:00N 35°31' E 140°03'0 0.3
2018-Feb-22 04:30N 35°31' E 140°02'510.7
2018-Feb-22 04:00N 35°36' E 139°60'6 6.4
2018-Feb-22 03:08N 35°41' E 139°56'0 0.0
2018-Feb-22 02:56N 35°41' E 139°56'0 0.0
2018-Feb-22 02:26N 35°41' E 139°56'0 0.0
2018-Feb-22 01:56N 35°41' E 139°56'0 0.0
2018-Feb-22 01:26N 35°41' E 139°56'0 0.0
2018-Feb-22 00:56N 35°41' E 139°56'0 0.0
2018-Feb-22 00:26N 35°41' E 139°56'0 0.0
2018-Feb-21 23:56N 35°41' E 139°56'0 0.0
2018-Feb-21 23:26N 35°41' E 139°56'0 0.0
2018-Feb-21 22:53N 35°41' E 139°56'0 0.0
2018-Feb-21 22:26N 35°41' E 139°56'0 0.0
2018-Feb-21 21:56N 35°41' E 139°56'1 2.0
2018-Feb-21 21:31N 35°40' E 139°57'4 7.5
2018-Feb-21 21:00N 35°36' E 139°56'1 2.4
2018-Feb-21 20:27N 35°36' E 139°55'0 0.1
2018-Feb-21 19:57N 35°36' E 139°55'0 0.0
2018-Feb-21 19:27N 35°36' E 139°55'0 0.0
2018-Feb-21 19:00N 35°36' E 139°55'0 0.0
2018-Feb-21 18:27N 35°36' E 139°55'0 0.0
2018-Feb-21 18:00N 35°36' E 139°55'0 0.0
2018-Feb-21 17:30N 35°36' E 139°55'0 0.0
2018-Feb-21 17:00N 35°36' E 139°55'0 0.0
2018-Feb-21 16:30N 35°36' E 139°55'0 0.0
2018-Feb-21 15:54N 35°36' E 139°55'0 0.0
2018-Feb-21 15:30N 35°36' E 139°55'0 0.0
2018-Feb-21 15:00N 35°36' E 139°55'0 0.0
2018-Feb-21 14:24N 35°36' E 139°55'0 0.0
2018-Feb-21 14:00N 35°36' E 139°55'0 0.1
2018-Feb-21 13:30N 35°36' E 139°55'4 7.1
2018-Feb-21 13:00N 35°33' E 139°52'5 9.4
2018-Feb-21 12:30N 35°30' E 139°47'2 3.3
2018-Feb-21 11:58N 35°30' E 139°45'0 0.0
2018-Feb-21 11:28N 35°30' E 139°45'0 0.0
2018-Feb-21 10:58N 35°30' E 139°45'0 0.0
2018-Feb-21 10:28N 35°30' E 139°45'0 0.0
2018-Feb-21 09:58N 35°30' E 139°45'0 0.0
2018-Feb-21 09:28N 35°30' E 139°45'0 0.0
2018-Feb-21 08:58N 35°30' E 139°45'0 0.0
2018-Feb-21 08:28N 35°30' E 139°45'0 0.0
2018-Feb-21 07:58N 35°30' E 139°45'0 0.5
2018-Feb-21 07:30N 35°30' E 139°45'3 6.9
2018-Feb-21 07:00N 35°27' E 139°43'510.7
2018-Feb-21 06:30N 35°29' E 139°49'0 0.4
2018-Feb-21 05:55N 35°29' E 139°49'0 0.0
2018-Feb-21 05:25N 35°29' E 139°49'0 0.0
2018-Feb-21 04:58N 35°29' E 139°49'0 0.1
2018-Feb-21 04:28N 35°29' E 139°49'3 7.0
2018-Feb-21 04:00N 35°31' E 139°52'611.5
2018-Feb-21 03:30N 35°36' E 139°57'5 2.2
2018-Feb-21 01:24N 35°41' E 139°56'0 0.1
2018-Feb-20 21:37N 35°40' E 139°57'1 7.9
2018-Feb-20 21:29N 35°40' E 139°58'4 7.5
2018-Feb-20 21:00N 35°36' E 139°56'1 1.6
2018-Feb-20 20:26N 35°36' E 139°55'0 0.0
2018-Feb-20 19:56N 35°36' E 139°55'0 0.0
2018-Feb-20 19:20N 35°36' E 139°55'0 0.0
2018-Feb-20 18:56N 35°36' E 139°55'0 0.0
2018-Feb-20 18:26N 35°36' E 139°55'0 0.0
2018-Feb-20 17:59N 35°36' E 139°55'0 0.0
2018-Feb-20 17:20N 35°36' E 139°55'0 0.0
2018-Feb-20 16:50N 35°36' E 139°55'0 0.0
2018-Feb-20 16:14N 35°36' E 139°55'0 0.1
2018-Feb-20 15:56N 35°36' E 139°55'0 0.0
2018-Feb-20 15:29N 35°36' E 139°55'0 0.0
2018-Feb-20 14:59N 35°36' E 139°55'0 0.0
2018-Feb-20 14:29N 35°36' E 139°55'0 0.1
2018-Feb-20 13:56N 35°36' E 139°55'0 0.0
2018-Feb-20 13:29N 35°36' E 139°55'0 0.0
2018-Feb-20 12:59N 35°36' E 139°55'0 0.0
2018-Feb-20 12:26N 35°36' E 139°55'0 0.0
2018-Feb-20 11:50N 35°36' E 139°55'0 0.0
2018-Feb-20 11:29N 35°36' E 139°55'0 0.0
2018-Feb-20 10:59N 35°36' E 139°55'0 0.0
2018-Feb-20 10:23N 35°36' E 139°55'0 0.0
2018-Feb-20 09:50N 35°36' E 139°55'0 0.0
2018-Feb-20 09:26N 35°36' E 139°55'0 0.0
2018-Feb-20 08:56N 35°36' E 139°55'0 0.1
2018-Feb-20 08:29N 35°36' E 139°55'0 0.1
2018-Feb-20 07:38N 35°36' E 139°55'0 0.0
2018-Feb-20 07:11N 35°36' E 139°55'0 0.2
2018-Feb-20 06:59N 35°36' E 139°55'3 6.5
2018-Feb-20 06:30N 35°33' E 139°57'510.2
2018-Feb-20 06:00N 35°29' E 140°00'0 0.8
2018-Feb-20 05:28N 35°29' E 140°01'0 0.0
2018-Feb-20 04:58N 35°29' E 140°01'0 0.0
2018-Feb-20 04:13N 35°29' E 140°01'0 0.0
2018-Feb-20 03:52N 35°29' E 140°01'0 0.0
2018-Feb-20 03:28N 35°29' E 140°01'0 0.0
2018-Feb-20 02:58N 35°29' E 140°01'0 0.0
2018-Feb-20 02:25N 35°29' E 140°01'0 0.0
2018-Feb-20 01:58N 35°29' E 140°01'0 0.0
2018-Feb-20 01:28N 35°29' E 140°01'0 0.0
2018-Feb-20 00:55N 35°29' E 140°01'0 0.0
2018-Feb-20 00:28N 35°29' E 140°01'0 0.0
2018-Feb-19 23:55N 35°29' E 140°01'2 5.9
2018-Feb-19 23:30N 35°30' E 139°59'510.4
2018-Feb-19 22:59N 35°36' E 139°59'5 0.2
2018-Feb-19 03:15N 35°41' E 139°59'2 9.0
2018-Feb-19 03:00N 35°38' E 139°59'5 9.7
2018-Feb-19 02:30N 35°35' E 139°55'1 1.2
2018-Feb-19 02:00N 35°35' E 139°55'4 8.4
2018-Feb-19 01:30N 35°38' E 139°58'3 4.2
2018-Feb-19 00:52N 35°41' E 139°56'0 0.0
2018-Feb-18 22:04N 35°41' E 139°56'0 0.6
2018-Feb-18 21:37N 35°40' E 139°57'1 8.4
2018-Feb-18 21:30N 35°40' E 139°57'4 7.5
2018-Feb-18 21:00N 35°36' E 139°56'1 1.3
2018-Feb-18 20:29N 35°36' E 139°55'0 0.1
2018-Feb-18 19:59N 35°36' E 139°55'0 0.1
2018-Feb-18 19:29N 35°36' E 139°55'0 0.0
2018-Feb-18 18:59N 35°36' E 139°55'0 0.0
2018-Feb-18 18:23N 35°36' E 139°55'0 0.0
2018-Feb-18 17:59N 35°36' E 139°55'0 0.0
2018-Feb-18 17:29N 35°36' E 139°55'0 0.0
2018-Feb-18 16:59N 35°36' E 139°55'0 0.0
2018-Feb-18 16:29N 35°36' E 139°55'0 0.0
2018-Feb-18 15:47N 35°36' E 139°55'0 0.0
2018-Feb-18 15:28N 35°36' E 139°55'0 0.0
2018-Feb-18 14:59N 35°36' E 139°55'0 0.1
2018-Feb-18 14:29N 35°36' E 139°55'0 0.0
2018-Feb-18 13:58N 35°36' E 139°55'0 0.0
2018-Feb-18 13:29N 35°36' E 139°55'0 0.0
2018-Feb-18 12:59N 35°36' E 139°55'0 0.1
2018-Feb-18 12:29N 35°36' E 139°55'0 0.0
2018-Feb-18 11:53N 35°36' E 139°55'0 0.0
2018-Feb-18 10:17N 35°36' E 139°55'0 0.0
2018-Feb-18 09:59N 35°36' E 139°55'0 0.0
2018-Feb-18 09:29N 35°36' E 139°55'1 1.1
2018-Feb-18 09:00N 35°35' E 139°56'5 9.6
2018-Feb-18 08:30N 35°32' E 139°60'3 4.9
2018-Feb-18 07:58N 35°30' E 140°02'0 0.0
2018-Feb-18 07:28N 35°30' E 140°02'0 0.0
2018-Feb-18 06:52N 35°30' E 140°02'0 0.0
2018-Feb-18 05:49N 35°30' E 140°02'0 0.0
2018-Feb-18 05:28N 35°30' E 140°02'1 1.2
2018-Feb-18 04:59N 35°30' E 140°01'3 5.9
2018-Feb-18 04:30N 35°32' E 139°59'4 8.7
2018-Feb-18 03:59N 35°35' E 139°55'0 0.9
2018-Feb-18 03:30N 35°36' E 139°55'4 8.3
2018-Feb-18 03:00N 35°39' E 139°58'1 0.3
2018-Feb-17 21:39N 35°40' E 139°56'1 5.7
2018-Feb-17 21:29N 35°40' E 139°57'3 7.3
2018-Feb-17 21:00N 35°37' E 139°56'1 1.5
2018-Feb-17 20:25N 35°36' E 139°55'0 0.0
2018-Feb-17 19:58N 35°36' E 139°55'0 0.0
2018-Feb-17 19:22N 35°36' E 139°55'0 0.0
2018-Feb-17 18:58N 35°36' E 139°55'0 0.0
2018-Feb-17 18:28N 35°36' E 139°55'0 0.0
2018-Feb-17 17:58N 35°36' E 139°55'0 0.0
2018-Feb-17 17:28N 35°36' E 139°55'0 0.0
2018-Feb-17 16:58N 35°36' E 139°55'0 0.0
2018-Feb-17 16:28N 35°36' E 139°55'0 0.0
2018-Feb-17 15:58N 35°36' E 139°55'0 0.1
2018-Feb-17 15:22N 35°36' E 139°55'0 0.0
2018-Feb-17 14:22N 35°36' E 139°55'0 0.0
2018-Feb-17 13:52N 35°36' E 139°55'0 0.0
2018-Feb-17 13:28N 35°36' E 139°55'0 0.0
2018-Feb-17 13:00N 35°36' E 139°55'3 6.4
2018-Feb-17 12:29N 35°33' E 139°53'4 9.1
2018-Feb-17 12:01N 35°31' E 139°49'2 4.2
2018-Feb-17 11:27N 35°31' E 139°46'0 0.0
2018-Feb-17 11:00N 35°31' E 139°46'0 0.0
2018-Feb-17 10:30N 35°31' E 139°46'0 0.0
2018-Feb-17 09:58N 35°31' E 139°46'0 0.0
2018-Feb-17 09:31N 35°31' E 139°46'0 0.0
2018-Feb-17 09:01N 35°31' E 139°46'0 0.0
2018-Feb-17 08:30N 35°31' E 139°46'0 0.0
2018-Feb-17 07:57N 35°31' E 139°46'0 0.0
2018-Feb-17 07:31N 35°31' E 139°46'0 0.0
2018-Feb-17 07:01N 35°31' E 139°46'0 0.0
2018-Feb-17 06:31N 35°31' E 139°46'0 0.0
2018-Feb-17 06:00N 35°31' E 139°46'1 1.5
2018-Feb-17 05:30N 35°31' E 139°46'4 8.0
2018-Feb-17 05:00N 35°28' E 139°43'2 4.0
2018-Feb-17 04:30N 35°28' E 139°45'4 7.9
2018-Feb-17 04:00N 35°29' E 139°50'510.7
2018-Feb-17 03:30N 35°33' E 139°54'611.5
2018-Feb-17 03:00N 35°38' E 139°58'3 5.7
2018-Feb-17 02:27N 35°41' E 139°56'0 0.0
2018-Feb-17 01:57N 35°41' E 139°56'0 0.0
2018-Feb-17 01:09N 35°41' E 139°56'0 0.0
2018-Feb-17 00:57N 35°41' E 139°56'0 0.0
2018-Feb-17 00:27N 35°41' E 139°56'0 0.0
2018-Feb-16 21:44N 35°41' E 139°56'1 3.4
2018-Feb-16 21:29N 35°40' E 139°57'4 7.6
2018-Feb-16 21:00N 35°36' E 139°56'1 2.2
2018-Feb-16 20:27N 35°36' E 139°55'0 0.0
2018-Feb-16 19:57N 35°36' E 139°55'0 0.1
2018-Feb-16 19:03N 35°36' E 139°55'0 0.1
2018-Feb-16 18:57N 35°36' E 139°55'0 0.0
2018-Feb-16 18:27N 35°36' E 139°55'0 0.0
2018-Feb-16 17:57N 35°36' E 139°55'0 0.0
2018-Feb-16 17:27N 35°36' E 139°55'0 0.0
2018-Feb-16 16:51N 35°36' E 139°55'0 0.0
2018-Feb-16 15:21N 35°36' E 139°55'0 0.3
2018-Feb-16 15:00N 35°36' E 139°55'5 9.7
2018-Feb-16 14:30N 35°33' E 139°60'3 5.0
2018-Feb-16 13:54N 35°31' E 140°03'0 0.0
2018-Feb-16 13:30N 35°31' E 140°03'0 0.0
2018-Feb-16 13:00N 35°31' E 140°03'0 0.0
2018-Feb-16 12:24N 35°31' E 140°03'0 0.0
2018-Feb-16 12:00N 35°31' E 140°03'0 0.0
2018-Feb-16 11:30N 35°31' E 140°03'0 0.0
2018-Feb-16 11:00N 35°31' E 140°03'0 0.0
2018-Feb-16 10:30N 35°31' E 140°03'0 0.0
2018-Feb-16 10:00N 35°31' E 140°03'0 0.0
2018-Feb-16 09:30N 35°31' E 140°03'0 0.0
2018-Feb-16 09:00N 35°31' E 140°03'0 0.0
2018-Feb-16 08:30N 35°31' E 140°03'0 0.0
2018-Feb-16 08:00N 35°31' E 140°03'0 0.0
2018-Feb-16 07:24N 35°31' E 140°03'0 0.0
2018-Feb-16 07:00N 35°31' E 140°03'0 0.0
2018-Feb-16 06:30N 35°31' E 140°03'0 0.0
2018-Feb-16 06:00N 35°31' E 140°03'0 0.0
2018-Feb-16 05:30N 35°31' E 140°03'0 0.0
2018-Feb-16 04:48N 35°31' E 140°03'0 0.0
2018-Feb-16 04:30N 35°31' E 140°03'2 3.5
2018-Feb-16 04:00N 35°32' E 140°01'611.3
2018-Feb-16 03:31N 35°37' E 139°59'4 5.7
2018-Feb-16 02:51N 35°41' E 139°56'0 0.0
2018-Feb-16 02:22N 35°41' E 139°56'0 0.0
2018-Feb-16 01:58N 35°41' E 139°56'0 0.0
2018-Feb-16 01:27N 35°41' E 139°56'0 0.0
2018-Feb-16 00:52N 35°41' E 139°56'0 0.0
2018-Feb-16 00:28N 35°41' E 139°56'0 0.0
2018-Feb-15 23:10N 35°41' E 139°56'1 0.5
2018-Feb-15 21:58N 35°40' E 139°57'3 7.5
2018-Feb-15 21:30N 35°37' E 139°57'2 3.4
2018-Feb-15 20:59N 35°36' E 139°55'0 0.0
2018-Feb-15 20:29N 35°36' E 139°55'0 0.1
2018-Feb-15 19:59N 35°36' E 139°55'0 0.0
2018-Feb-15 19:29N 35°36' E 139°55'0 0.0
2018-Feb-15 18:47N 35°36' E 139°55'0 0.0
2018-Feb-15 18:29N 35°36' E 139°55'0 0.0
2018-Feb-15 17:59N 35°36' E 139°55'0 0.0
2018-Feb-15 17:29N 35°36' E 139°55'0 0.0
2018-Feb-15 16:59N 35°36' E 139°55'0 0.1
2018-Feb-15 16:14N 35°36' E 139°55'0 0.0
2018-Feb-15 15:56N 35°36' E 139°55'0 0.0
2018-Feb-15 15:29N 35°36' E 139°55'0 0.0
2018-Feb-15 14:59N 35°36' E 139°55'0 0.0
2018-Feb-15 14:29N 35°36' E 139°55'0 0.1
2018-Feb-15 13:59N 35°36' E 139°55'0 0.0
2018-Feb-15 13:29N 35°36' E 139°55'0 0.0
2018-Feb-15 12:59N 35°36' E 139°55'0 0.0
2018-Feb-15 12:29N 35°36' E 139°55'0 0.1
2018-Feb-15 11:53N 35°36' E 139°55'0 0.1
2018-Feb-15 11:29N 35°36' E 139°55'0 0.0
2018-Feb-15 10:59N 35°36' E 139°55'0 0.1
2018-Feb-15 10:26N 35°36' E 139°55'0 0.0
2018-Feb-15 09:56N 35°36' E 139°55'0 0.0
2018-Feb-15 09:29N 35°36' E 139°55'0 0.0
2018-Feb-15 08:59N 35°36' E 139°55'0 0.1
2018-Feb-15 08:29N 35°36' E 139°55'3 6.2
2018-Feb-15 08:00N 35°34' E 139°58'510.1
2018-Feb-15 07:30N 35°31' E 140°02'0 0.2
2018-Feb-15 06:59N 35°31' E 140°02'0 0.0
2018-Feb-15 06:23N 35°31' E 140°02'0 0.0
2018-Feb-15 05:53N 35°31' E 140°02'0 0.0
2018-Feb-15 05:29N 35°31' E 140°02'0 0.0
2018-Feb-15 04:59N 35°31' E 140°02'0 0.0
2018-Feb-15 04:26N 35°31' E 140°02'0 0.0
2018-Feb-15 03:53N 35°31' E 140°02'0 0.0
2018-Feb-15 03:29N 35°31' E 140°02'0 0.0
2018-Feb-15 02:59N 35°31' E 140°02'0 0.0
2018-Feb-15 02:23N 35°31' E 140°02'0 0.0
2018-Feb-15 01:56N 35°31' E 140°02'0 0.0
2018-Feb-15 01:26N 35°31' E 140°02'0 0.0
2018-Feb-15 00:59N 35°31' E 140°02'0 0.0
2018-Feb-15 00:29N 35°31' E 140°02'1 2.2
2018-Feb-15 00:00N 35°31' E 140°01'510.0
2018-Feb-14 23:31N 35°34' E 139°56'2 3.2
2018-Feb-14 22:55N 35°36' E 139°55'0 0.0
2018-Feb-14 22:25N 35°36' E 139°55'0 0.0
2018-Feb-14 21:55N 35°36' E 139°55'0 0.1
2018-Feb-14 21:25N 35°36' E 139°55'0 0.1
2018-Feb-14 20:58N 35°36' E 139°55'0 0.0
2018-Feb-14 20:28N 35°36' E 139°55'0 0.0
2018-Feb-14 19:58N 35°36' E 139°55'0 0.0
2018-Feb-14 19:28N 35°36' E 139°55'0 0.0
2018-Feb-14 18:52N 35°36' E 139°55'0 0.0
2018-Feb-14 18:28N 35°36' E 139°55'0 0.0
2018-Feb-14 17:58N 35°36' E 139°55'0 0.0
2018-Feb-14 17:25N 35°36' E 139°55'0 0.0
2018-Feb-14 16:55N 35°36' E 139°55'0 0.0
2018-Feb-14 16:28N 35°36' E 139°55'0 0.0
2018-Feb-14 15:58N 35°36' E 139°55'0 0.0
2018-Feb-14 15:28N 35°36' E 139°55'  
Track history (hours):
 
Tides and Currents Weather Stations Pressure Air Temp Water Temp Dewpoint Dewpoint Depression Visibility Wind Speed Wind Dir Waves Ship Positions

Shokyu Maru

Last reported at 2018-Feb-24 15:00 UTC. Time now 2018-Feb-24 15:38 UTC.
Position N 35°29' E 139°39'.

Length 91 m; draft 3.2 m.

Type: Tanker. MMSI: 431000253.

Date/timePositionNaut miles runAvg speedWind from/ knotsBaromVisibWave heightAir tempDewpointWater temp
2018-Feb-24 15:00N 35°29' E 139°39'0 0.0
2018-Feb-24 14:30N 35°29' E 139°39'0 0.0
2018-Feb-24 14:00N 35°29' E 139°39'0 0.0
2018-Feb-24 13:30N 35°29' E 139°39'0 0.0
2018-Feb-24 13:00N 35°29' E 139°39'0 0.0
2018-Feb-24 12:30N 35°29' E 139°39'0 0.0
2018-Feb-24 12:00N 35°29' E 139°39'0 0.0
2018-Feb-24 11:30N 35°29' E 139°39'0 0.0
2018-Feb-24 11:00N 35°29' E 139°39'0 0.0
2018-Feb-24 10:30N 35°29' E 139°39'0 0.0
2018-Feb-24 10:00N 35°29' E 139°39'0 0.0
2018-Feb-24 09:30N 35°29' E 139°39'0 0.0
2018-Feb-24 09:00N 35°29' E 139°39'0 0.0
2018-Feb-24 08:30N 35°29' E 139°39'0 0.0
2018-Feb-24 08:00N 35°29' E 139°39'0 0.0
2018-Feb-24 07:30N 35°29' E 139°39'0 0.0
2018-Feb-24 07:00N 35°29' E 139°39'0 0.0
2018-Feb-24 06:30N 35°29' E 139°39'0 0.0
2018-Feb-24 06:00N 35°29' E 139°39'0 0.0
2018-Feb-24 05:30N 35°29' E 139°39'4 7.3
2018-Feb-24 05:00N 35°26' E 139°43'510.8
2018-Feb-24 04:30N 35°29' E 139°49'510.6
2018-Feb-24 04:00N 35°32' E 139°53'610.7
2018-Feb-24 03:28N 35°37' E 139°57'4 0.9
2018-Feb-23 23:19N 35°41' E 139°56'0 0.0
2018-Feb-23 22:49N 35°41' E 139°56'0 0.6
2018-Feb-23 22:06N 35°40' E 139°57'1 9.6
2018-Feb-23 22:01N 35°40' E 139°57'4 7.1
2018-Feb-23 21:30N 35°36' E 139°56'0 0.7
2018-Feb-23 20:58N 35°36' E 139°55'0 0.0
2018-Feb-23 20:28N 35°36' E 139°55'0 0.0
2018-Feb-23 19:58N 35°36' E 139°55'0 0.0
2018-Feb-23 19:25N 35°36' E 139°55'0 0.1
2018-Feb-23 18:55N 35°36' E 139°55'0 0.1
2018-Feb-23 18:28N 35°36' E 139°55'0 0.0
2018-Feb-23 17:58N 35°36' E 139°55'0 0.0
2018-Feb-23 17:28N 35°36' E 139°55'0 0.0
2018-Feb-23 16:58N 35°36' E 139°55'0 0.1
2018-Feb-23 16:25N 35°36' E 139°55'0 0.0
2018-Feb-23 15:58N 35°36' E 139°55'0 0.1
2018-Feb-23 15:25N 35°36' E 139°55'0 0.1
2018-Feb-23 14:58N 35°36' E 139°55'0 0.0
2018-Feb-23 14:28N 35°36' E 139°55'0 0.1
2018-Feb-23 13:37N 35°36' E 139°55'0 0.1
2018-Feb-23 13:25N 35°36' E 139°55'0 0.0
2018-Feb-23 12:55N 35°36' E 139°55'0 0.0
2018-Feb-23 12:19N 35°36' E 139°55'0 0.0
2018-Feb-23 11:55N 35°36' E 139°55'1 1.2
2018-Feb-23 11:30N 35°36' E 139°56'510.6
2018-Feb-23 11:00N 35°33' E 140°01'2 3.3
2018-Feb-23 10:25N 35°32' E 140°03'0 0.0
2018-Feb-23 09:55N 35°32' E 140°03'0 0.0
2018-Feb-23 09:25N 35°32' E 140°03'0 0.0
2018-Feb-23 08:58N 35°32' E 140°03'0 0.0
2018-Feb-23 08:25N 35°32' E 140°03'0 0.0
2018-Feb-23 07:55N 35°32' E 140°03'0 0.0
2018-Feb-23 07:25N 35°32' E 140°03'0 0.0
2018-Feb-23 06:55N 35°32' E 140°03'0 0.0
2018-Feb-23 06:28N 35°32' E 140°03'0 0.0
2018-Feb-23 05:58N 35°32' E 140°03'0 0.0
2018-Feb-23 05:25N 35°32' E 140°03'0 0.0
2018-Feb-23 04:55N 35°32' E 140°03'1 2.1
2018-Feb-23 04:31N 35°32' E 140°02'0 0.7
2018-Feb-23 04:00N 35°32' E 140°02'3 5.7
2018-Feb-23 03:30N 35°35' E 140°00'510.7
2018-Feb-23 03:00N 35°40' E 139°58'1 0.9
2018-Feb-23 01:33N 35°41' E 139°56'0 0.0
2018-Feb-23 01:09N 35°41' E 139°56'0 0.0
2018-Feb-23 00:57N 35°41' E 139°56'0 0.0
2018-Feb-23 00:27N 35°41' E 139°56'0 0.1
2018-Feb-22 21:34N 35°40' E 139°57'1 7.8
2018-Feb-22 21:30N 35°40' E 139°57'4 4.2
2018-Feb-22 20:38N 35°37' E 139°59'0 0.0
2018-Feb-22 20:26N 35°37' E 139°59'0 0.0
2018-Feb-22 19:56N 35°37' E 139°59'0 0.0
2018-Feb-22 19:26N 35°37' E 139°59'0 0.0
2018-Feb-22 18:56N 35°37' E 139°59'0 0.0
2018-Feb-22 18:26N 35°37' E 139°59'0 0.0
2018-Feb-22 17:56N 35°37' E 139°59'0 0.0
2018-Feb-22 17:26N 35°37' E 139°59'0 0.0
2018-Feb-22 16:56N 35°37' E 139°59'0 0.0
2018-Feb-22 16:20N 35°37' E 139°59'0 0.0
2018-Feb-22 15:56N 35°37' E 139°59'0 0.0
2018-Feb-22 15:26N 35°37' E 139°59'0 0.0
2018-Feb-22 14:56N 35°37' E 139°59'0 0.0
2018-Feb-22 14:26N 35°37' E 139°59'0 0.0
2018-Feb-22 13:56N 35°37' E 139°59'0 0.0
2018-Feb-22 13:26N 35°37' E 139°59'0 0.0
2018-Feb-22 12:56N 35°37' E 139°59'0 0.0
2018-Feb-22 12:26N 35°37' E 139°59'0 0.0
2018-Feb-22 11:56N 35°37' E 139°59'1 2.1
2018-Feb-22 11:30N 35°36' E 139°59'510.2
2018-Feb-22 11:00N 35°31' E 140°02'1 1.5
2018-Feb-22 10:24N 35°31' E 140°03'0 0.0
2018-Feb-22 10:00N 35°31' E 140°03'0 0.0
2018-Feb-22 09:24N 35°31' E 140°03'0 0.0
2018-Feb-22 09:00N 35°31' E 140°03'0 0.0
2018-Feb-22 08:27N 35°31' E 140°03'0 0.0
2018-Feb-22 07:57N 35°31' E 140°03'0 0.0
2018-Feb-22 07:30N 35°31' E 140°03'0 0.0
2018-Feb-22 06:54N 35°31' E 140°03'0 0.0
2018-Feb-22 06:30N 35°31' E 140°03'0 0.0
2018-Feb-22 05:54N 35°31' E 140°03'0 0.0
2018-Feb-22 05:24N 35°31' E 140°03'0 0.0
2018-Feb-22 05:00N 35°31' E 140°03'0 0.3
2018-Feb-22 04:30N 35°31' E 140°02'510.7
2018-Feb-22 04:00N 35°36' E 139°60'6 6.4
2018-Feb-22 03:08N 35°41' E 139°56'0 0.0
2018-Feb-22 02:56N 35°41' E 139°56'0 0.0
2018-Feb-22 02:26N 35°41' E 139°56'0 0.0
2018-Feb-22 01:56N 35°41' E 139°56'0 0.0
2018-Feb-22 01:26N 35°41' E 139°56'0 0.0
2018-Feb-22 00:56N 35°41' E 139°56'0 0.0
2018-Feb-22 00:26N 35°41' E 139°56'0 0.0
2018-Feb-21 23:56N 35°41' E 139°56'0 0.0
2018-Feb-21 23:26N 35°41' E 139°56'0 0.0
2018-Feb-21 22:53N 35°41' E 139°56'0 0.0
2018-Feb-21 22:26N 35°41' E 139°56'0 0.0
2018-Feb-21 21:56N 35°41' E 139°56'1 2.0
2018-Feb-21 21:31N 35°40' E 139°57'4 7.5
2018-Feb-21 21:00N 35°36' E 139°56'1 2.4
2018-Feb-21 20:27N 35°36' E 139°55'0 0.1
2018-Feb-21 19:57N 35°36' E 139°55'0 0.0
2018-Feb-21 19:27N 35°36' E 139°55'0 0.0
2018-Feb-21 19:00N 35°36' E 139°55'0 0.0
2018-Feb-21 18:27N 35°36' E 139°55'0 0.0
2018-Feb-21 18:00N 35°36' E 139°55'0 0.0
2018-Feb-21 17:30N 35°36' E 139°55'0 0.0
2018-Feb-21 17:00N 35°36' E 139°55'0 0.0
2018-Feb-21 16:30N 35°36' E 139°55'0 0.0
2018-Feb-21 15:54N 35°36' E 139°55'0 0.0
2018-Feb-21 15:30N 35°36' E 139°55'0 0.0
2018-Feb-21 15:00N 35°36' E 139°55'0 0.0
2018-Feb-21 14:24N 35°36' E 139°55'0 0.0
2018-Feb-21 14:00N 35°36' E 139°55'0 0.1
2018-Feb-21 13:30N 35°36' E 139°55'4 7.1
2018-Feb-21 13:00N 35°33' E 139°52'5 9.4
2018-Feb-21 12:30N 35°30' E 139°47'2 3.3
2018-Feb-21 11:58N 35°30' E 139°45'0 0.0
2018-Feb-21 11:28N 35°30' E 139°45'0 0.0
2018-Feb-21 10:58N 35°30' E 139°45'0 0.0
2018-Feb-21 10:28N 35°30' E 139°45'0 0.0
2018-Feb-21 09:58N 35°30' E 139°45'0 0.0
2018-Feb-21 09:28N 35°30' E 139°45'0 0.0
2018-Feb-21 08:58N 35°30' E 139°45'0 0.0
2018-Feb-21 08:28N 35°30' E 139°45'0 0.0
2018-Feb-21 07:58N 35°30' E 139°45'0 0.5
2018-Feb-21 07:30N 35°30' E 139°45'3 6.9
2018-Feb-21 07:00N 35°27' E 139°43'510.7
2018-Feb-21 06:30N 35°29' E 139°49'0 0.4
2018-Feb-21 05:55N 35°29' E 139°49'0 0.0
2018-Feb-21 05:25N 35°29' E 139°49'0 0.0
2018-Feb-21 04:58N 35°29' E 139°49'0 0.1
2018-Feb-21 04:28N 35°29' E 139°49'3 7.0
2018-Feb-21 04:00N 35°31' E 139°52'611.5
2018-Feb-21 03:30N 35°36' E 139°57'5 2.2
2018-Feb-21 01:24N 35°41' E 139°56'0 0.1
2018-Feb-20 21:37N 35°40' E 139°57'1 7.9
2018-Feb-20 21:29N 35°40' E 139°58'4 7.5
2018-Feb-20 21:00N 35°36' E 139°56'1 1.6
2018-Feb-20 20:26N 35°36' E 139°55'0 0.0
2018-Feb-20 19:56N 35°36' E 139°55'0 0.0
2018-Feb-20 19:20N 35°36' E 139°55'0 0.0
2018-Feb-20 18:56N 35°36' E 139°55'0 0.0
2018-Feb-20 18:26N 35°36' E 139°55'0 0.0
2018-Feb-20 17:59N 35°36' E 139°55'0 0.0
2018-Feb-20 17:20N 35°36' E 139°55'0 0.0
2018-Feb-20 16:50N 35°36' E 139°55'0 0.0
2018-Feb-20 16:14N 35°36' E 139°55'0 0.1
2018-Feb-20 15:56N 35°36' E 139°55'0 0.0
2018-Feb-20 15:29N 35°36' E 139°55'0 0.0
2018-Feb-20 14:59N 35°36' E 139°55'0 0.0
2018-Feb-20 14:29N 35°36' E 139°55'0 0.1
2018-Feb-20 13:56N 35°36' E 139°55'0 0.0
2018-Feb-20 13:29N 35°36' E 139°55'0 0.0
2018-Feb-20 12:59N 35°36' E 139°55'0 0.0
2018-Feb-20 12:26N 35°36' E 139°55'0 0.0
2018-Feb-20 11:50N 35°36' E 139°55'0 0.0
2018-Feb-20 11:29N 35°36' E 139°55'0 0.0
2018-Feb-20 10:59N 35°36' E 139°55'0 0.0
2018-Feb-20 10:23N 35°36' E 139°55'0 0.0
2018-Feb-20 09:50N 35°36' E 139°55'0 0.0
2018-Feb-20 09:26N 35°36' E 139°55'0 0.0
2018-Feb-20 08:56N 35°36' E 139°55'0 0.1
2018-Feb-20 08:29N 35°36' E 139°55'0 0.1
2018-Feb-20 07:38N 35°36' E 139°55'0 0.0
2018-Feb-20 07:11N 35°36' E 139°55'0 0.2
2018-Feb-20 06:59N 35°36' E 139°55'3 6.5
2018-Feb-20 06:30N 35°33' E 139°57'510.2
2018-Feb-20 06:00N 35°29' E 140°00'0 0.8
2018-Feb-20 05:28N 35°29' E 140°01'0 0.0
2018-Feb-20 04:58N 35°29' E 140°01'0 0.0
2018-Feb-20 04:13N 35°29' E 140°01'0 0.0
2018-Feb-20 03:52N 35°29' E 140°01'0 0.0
2018-Feb-20 03:28N 35°29' E 140°01'0 0.0
2018-Feb-20 02:58N 35°29' E 140°01'0 0.0
2018-Feb-20 02:25N 35°29' E 140°01'0 0.0
2018-Feb-20 01:58N 35°29' E 140°01'0 0.0
2018-Feb-20 01:28N 35°29' E 140°01'0 0.0
2018-Feb-20 00:55N 35°29' E 140°01'0 0.0
2018-Feb-20 00:28N 35°29' E 140°01'0 0.0
2018-Feb-19 23:55N 35°29' E 140°01'2 5.9
2018-Feb-19 23:30N 35°30' E 139°59'510.4
2018-Feb-19 22:59N 35°36' E 139°59'5 0.2
2018-Feb-19 03:15N 35°41' E 139°59'2 9.0
2018-Feb-19 03:00N 35°38' E 139°59'5 9.7
2018-Feb-19 02:30N 35°35' E 139°55'1 1.2
2018-Feb-19 02:00N 35°35' E 139°55'4 8.4
2018-Feb-19 01:30N 35°38' E 139°58'3 4.2
2018-Feb-19 00:52N 35°41' E 139°56'0 0.0
2018-Feb-18 22:04N 35°41' E 139°56'0 0.6
2018-Feb-18 21:37N 35°40' E 139°57'1 8.4
2018-Feb-18 21:30N 35°40' E 139°57'4 7.5
2018-Feb-18 21:00N 35°36' E 139°56'1 1.3
2018-Feb-18 20:29N 35°36' E 139°55'0 0.1
2018-Feb-18 19:59N 35°36' E 139°55'0 0.1
2018-Feb-18 19:29N 35°36' E 139°55'0 0.0
2018-Feb-18 18:59N 35°36' E 139°55'0 0.0
2018-Feb-18 18:23N 35°36' E 139°55'0 0.0
2018-Feb-18 17:59N 35°36' E 139°55'0 0.0
2018-Feb-18 17:29N 35°36' E 139°55'0 0.0
2018-Feb-18 16:59N 35°36' E 139°55'0 0.0
2018-Feb-18 16:29N 35°36' E 139°55'0 0.0
2018-Feb-18 15:47N 35°36' E 139°55'0 0.0
2018-Feb-18 15:28N 35°36' E 139°55'0 0.0
2018-Feb-18 14:59N 35°36' E 139°55'0 0.1
2018-Feb-18 14:29N 35°36' E 139°55'0 0.0
2018-Feb-18 13:58N 35°36' E 139°55'0 0.0
2018-Feb-18 13:29N 35°36' E 139°55'0 0.0
2018-Feb-18 12:59N 35°36' E 139°55'0 0.1
2018-Feb-18 12:29N 35°36' E 139°55'0 0.0
2018-Feb-18 11:53N 35°36' E 139°55'0 0.0
2018-Feb-18 10:17N 35°36' E 139°55'0 0.0
2018-Feb-18 09:59N 35°36' E 139°55'0 0.0
2018-Feb-18 09:29N 35°36' E 139°55'1 1.1
2018-Feb-18 09:00N 35°35' E 139°56'5 9.6
2018-Feb-18 08:30N 35°32' E 139°60'3 4.9
2018-Feb-18 07:58N 35°30' E 140°02'0 0.0
2018-Feb-18 07:28N 35°30' E 140°02'0 0.0
2018-Feb-18 06:52N 35°30' E 140°02'0 0.0
2018-Feb-18 05:49N 35°30' E 140°02'0 0.0
2018-Feb-18 05:28N 35°30' E 140°02'1 1.2
2018-Feb-18 04:59N 35°30' E 140°01'3 5.9
2018-Feb-18 04:30N 35°32' E 139°59'4 8.7
2018-Feb-18 03:59N 35°35' E 139°55'0 0.9
2018-Feb-18 03:30N 35°36' E 139°55'4 8.3
2018-Feb-18 03:00N 35°39' E 139°58'1 0.3
2018-Feb-17 21:39N 35°40' E 139°56'1 5.7
2018-Feb-17 21:29N 35°40' E 139°57'3 7.3
2018-Feb-17 21:00N 35°37' E 139°56'1 1.5
2018-Feb-17 20:25N 35°36' E 139°55'0 0.0
2018-Feb-17 19:58N 35°36' E 139°55'0 0.0
2018-Feb-17 19:22N 35°36' E 139°55'0 0.0
2018-Feb-17 18:58N 35°36' E 139°55'0 0.0
2018-Feb-17 18:28N 35°36' E 139°55'0 0.0
2018-Feb-17 17:58N 35°36' E 139°55'0 0.0
2018-Feb-17 17:28N 35°36' E 139°55'0 0.0
2018-Feb-17 16:58N 35°36' E 139°55'0 0.0
2018-Feb-17 16:28N 35°36' E 139°55'0 0.0
2018-Feb-17 15:58N 35°36' E 139°55'0 0.1
2018-Feb-17 15:22N 35°36' E 139°55'0 0.0
2018-Feb-17 14:22N 35°36' E 139°55'0 0.0
2018-Feb-17 13:52N 35°36' E 139°55'0 0.0
2018-Feb-17 13:28N 35°36' E 139°55'0 0.0
2018-Feb-17 13:00N 35°36' E 139°55'3 6.4
2018-Feb-17 12:29N 35°33' E 139°53'4 9.1
2018-Feb-17 12:01N 35°31' E 139°49'2 4.2
2018-Feb-17 11:27N 35°31' E 139°46'0 0.0
2018-Feb-17 11:00N 35°31' E 139°46'0 0.0
2018-Feb-17 10:30N 35°31' E 139°46'0 0.0
2018-Feb-17 09:58N 35°31' E 139°46'0 0.0
2018-Feb-17 09:31N 35°31' E 139°46'0 0.0
2018-Feb-17 09:01N 35°31' E 139°46'0 0.0
2018-Feb-17 08:30N 35°31' E 139°46'0 0.0
2018-Feb-17 07:57N 35°31' E 139°46'0 0.0
2018-Feb-17 07:31N 35°31' E 139°46'0 0.0
2018-Feb-17 07:01N 35°31' E 139°46'0 0.0
2018-Feb-17 06:31N 35°31' E 139°46'0 0.0
2018-Feb-17 06:00N 35°31' E 139°46'1 1.5
2018-Feb-17 05:30N 35°31' E 139°46'4 8.0
2018-Feb-17 05:00N 35°28' E 139°43'2 4.0
2018-Feb-17 04:30N 35°28' E 139°45'4 7.9
2018-Feb-17 04:00N 35°29' E 139°50'510.7
2018-Feb-17 03:30N 35°33' E 139°54'611.5
2018-Feb-17 03:00N 35°38' E 139°58'3 5.7
2018-Feb-17 02:27N 35°41' E 139°56'0 0.0
2018-Feb-17 01:57N 35°41' E 139°56'0 0.0
2018-Feb-17 01:09N 35°41' E 139°56'0 0.0
2018-Feb-17 00:57N 35°41' E 139°56'0 0.0
2018-Feb-17 00:27N 35°41' E 139°56'0 0.0
2018-Feb-16 21:44N 35°41' E 139°56'1 3.4
2018-Feb-16 21:29N 35°40' E 139°57'4 7.6
2018-Feb-16 21:00N 35°36' E 139°56'1 2.2
2018-Feb-16 20:27N 35°36' E 139°55'0 0.0
2018-Feb-16 19:57N 35°36' E 139°55'0 0.1
2018-Feb-16 19:03N 35°36' E 139°55'0 0.1
2018-Feb-16 18:57N 35°36' E 139°55'0 0.0
2018-Feb-16 18:27N 35°36' E 139°55'0 0.0
2018-Feb-16 17:57N 35°36' E 139°55'0 0.0
2018-Feb-16 17:27N 35°36' E 139°55'0 0.0
2018-Feb-16 16:51N 35°36' E 139°55'0 0.0
2018-Feb-16 15:21N 35°36' E 139°55'0 0.3
2018-Feb-16 15:00N 35°36' E 139°55'5 9.7
2018-Feb-16 14:30N 35°33' E 139°60'3 5.0
2018-Feb-16 13:54N 35°31' E 140°03'0 0.0
2018-Feb-16 13:30N 35°31' E 140°03'0 0.0
2018-Feb-16 13:00N 35°31' E 140°03'0 0.0
2018-Feb-16 12:24N 35°31' E 140°03'0 0.0
2018-Feb-16 12:00N 35°31' E 140°03'0 0.0
2018-Feb-16 11:30N 35°31' E 140°03'0 0.0
2018-Feb-16 11:00N 35°31' E 140°03'0 0.0
2018-Feb-16 10:30N 35°31' E 140°03'0 0.0
2018-Feb-16 10:00N 35°31' E 140°03'0 0.0
2018-Feb-16 09:30N 35°31' E 140°03'0 0.0
2018-Feb-16 09:00N 35°31' E 140°03'0 0.0
2018-Feb-16 08:30N 35°31' E 140°03'0 0.0
2018-Feb-16 08:00N 35°31' E 140°03'0 0.0
2018-Feb-16 07:24N 35°31' E 140°03'0 0.0
2018-Feb-16 07:00N 35°31' E 140°03'0 0.0
2018-Feb-16 06:30N 35°31' E 140°03'0 0.0
2018-Feb-16 06:00N 35°31' E 140°03'0 0.0
2018-Feb-16 05:30N 35°31' E 140°03'0 0.0
2018-Feb-16 04:48N 35°31' E 140°03'0 0.0
2018-Feb-16 04:30N 35°31' E 140°03'2 3.5
2018-Feb-16 04:00N 35°32' E 140°01'611.3
2018-Feb-16 03:31N 35°37' E 139°59'4 5.7
2018-Feb-16 02:51N 35°41' E 139°56'0 0.0
2018-Feb-16 02:22N 35°41' E 139°56'0 0.0
2018-Feb-16 01:58N 35°41' E 139°56'0 0.0
2018-Feb-16 01:27N 35°41' E 139°56'0 0.0
2018-Feb-16 00:52N 35°41' E 139°56'0 0.0
2018-Feb-16 00:28N 35°41' E 139°56'0 0.0
2018-Feb-15 23:10N 35°41' E 139°56'1 0.5
2018-Feb-15 21:58N 35°40' E 139°57'3 7.5
2018-Feb-15 21:30N 35°37' E 139°57'2 3.4
2018-Feb-15 20:59N 35°36' E 139°55'0 0.0
2018-Feb-15 20:29N 35°36' E 139°55'0 0.1
2018-Feb-15 19:59N 35°36' E 139°55'0 0.0
2018-Feb-15 19:29N 35°36' E 139°55'0 0.0
2018-Feb-15 18:47N 35°36' E 139°55'0 0.0
2018-Feb-15 18:29N 35°36' E 139°55'0 0.0
2018-Feb-15 17:59N 35°36' E 139°55'0 0.0
2018-Feb-15 17:29N 35°36' E 139°55'0 0.0
2018-Feb-15 16:59N 35°36' E 139°55'0 0.1
2018-Feb-15 16:14N 35°36' E 139°55'0 0.0
2018-Feb-15 15:56N 35°36' E 139°55'0 0.0
2018-Feb-15 15:29N 35°36' E 139°55'0 0.0
2018-Feb-15 14:59N 35°36' E 139°55'0 0.0
2018-Feb-15 14:29N 35°36' E 139°55'0 0.1
2018-Feb-15 13:59N 35°36' E 139°55'0 0.0
2018-Feb-15 13:29N 35°36' E 139°55'0 0.0
2018-Feb-15 12:59N 35°36' E 139°55'0 0.0
2018-Feb-15 12:29N 35°36' E 139°55'0 0.1
2018-Feb-15 11:53N 35°36' E 139°55'0 0.1
2018-Feb-15 11:29N 35°36' E 139°55'0 0.0
2018-Feb-15 10:59N 35°36' E 139°55'0 0.1
2018-Feb-15 10:26N 35°36' E 139°55'0 0.0
2018-Feb-15 09:56N 35°36' E 139°55'0 0.0
2018-Feb-15 09:29N 35°36' E 139°55'0 0.0
2018-Feb-15 08:59N 35°36' E 139°55'0 0.1
2018-Feb-15 08:29N 35°36' E 139°55'3 6.2
2018-Feb-15 08:00N 35°34' E 139°58'510.1
2018-Feb-15 07:30N 35°31' E 140°02'0 0.2
2018-Feb-15 06:59N 35°31' E 140°02'0 0.0
2018-Feb-15 06:23N 35°31' E 140°02'0 0.0
2018-Feb-15 05:53N 35°31' E 140°02'0 0.0
2018-Feb-15 05:29N 35°31' E 140°02'0 0.0
2018-Feb-15 04:59N 35°31' E 140°02'0 0.0
2018-Feb-15 04:26N 35°31' E 140°02'0 0.0
2018-Feb-15 03:53N 35°31' E 140°02'0 0.0
2018-Feb-15 03:29N 35°31' E 140°02'0 0.0
2018-Feb-15 02:59N 35°31' E 140°02'0 0.0
2018-Feb-15 02:23N 35°31' E 140°02'0 0.0
2018-Feb-15 01:56N 35°31' E 140°02'0 0.0
2018-Feb-15 01:26N 35°31' E 140°02'0 0.0
2018-Feb-15 00:59N 35°31' E 140°02'0 0.0
2018-Feb-15 00:29N 35°31' E 140°02'1 2.2
2018-Feb-15 00:00N 35°31' E 140°01'510.0
2018-Feb-14 23:31N 35°34' E 139°56'2 3.2
2018-Feb-14 22:55N 35°36' E 139°55'0 0.0
2018-Feb-14 22:25N 35°36' E 139°55'0 0.0
2018-Feb-14 21:55N 35°36' E 139°55'0 0.1
2018-Feb-14 21:25N 35°36' E 139°55'0 0.1
2018-Feb-14 20:58N 35°36' E 139°55'0 0.0
2018-Feb-14 20:28N 35°36' E 139°55'0 0.0
2018-Feb-14 19:58N 35°36' E 139°55'0 0.0
2018-Feb-14 19:28N 35°36' E 139°55'0 0.0
2018-Feb-14 18:52N 35°36' E 139°55'0 0.0
2018-Feb-14 18:28N 35°36' E 139°55'0 0.0
2018-Feb-14 17:58N 35°36' E 139°55'0 0.0
2018-Feb-14 17:25N 35°36' E 139°55'0 0.0
2018-Feb-14 16:55N 35°36' E 139°55'0 0.0
2018-Feb-14 16:28N 35°36' E 139°55'0 0.0
2018-Feb-14 15:58N 35°36' E 139°55'0 0.0
2018-Feb-14 15:28N 35°36' E 139°55'  

Dump ship's entire track history